Terminal Aerodrome Forecast
Issued by NWS Green Bay, WI

Home | Current Version | Previous Version | Text Only | Print | Product List | Glossary Off
Versions: 1 2 3 4 5 6 7 8 9 10 11 12 13 14 15 16 17 18 19 20 21 22 23 24 25 26 27 28 29 30

000
FTUS43 KGRB 301943 AAA
TAFGRB
TAF AMD
KGRB 301943Z 3020/0118 23006KT P6SM BKN020 OVC050
     FM010000 24004KT 6SM -RA BR OVC015
     FM010300 25005KT 5SM -RA BR OVC007
     FM010800 27007KT 5SM -RASN BR OVC008
     FM011400 28011KT P6SM -SN BKN015 OVC040=

USA.gov is the U.S. government's official web portal to all federal, state and local government web resources and services.